Time;durP1;ratioP1;P1;durP2;ratioP2;P2;SDS_P1;SDS_P2;PMS_P1;PMS_P2;Temp;Humidity;BMP_temperature;BMP_pressure;BME280_temperature;BME280_humidity;BME280_pressure;Samples;Min_cycle;Max_cycle;Signal;HPM_P1;HPM_P2
2022/03/05 00:01:11;;;;;;;8.25;3.42;;;;;;;3.29;72.12;102116.94;4920648;29;20050;-50
2022/03/05 00:03:38;;;;;;;6.75;2.75;;;;;;;3.29;71.63;102122.41;4924210;29;20044;-47
2022/03/05 00:06:05;;;;;;;6.25;3.00;;;;;;;3.28;72.12;102129.00;4925267;29;20046;-47
2022/03/05 00:08:32;;;;;;;5.38;4.07;;;;;;;3.30;72.40;102129.53;4923524;29;21481;-54
2022/03/05 00:10:59;;;;;;;7.00;2.80;;;;;;;3.29;72.11;102133.38;4924596;29;20035;-48
2022/03/05 00:13:26;;;;;;;6.35;3.28;;;;;;;3.30;72.22;102129.53;4923347;29;20032;-49
2022/03/05 00:15:53;;;;;;;6.53;3.15;;;;;;;3.26;72.22;102129.25;4924349;29;20036;-51
2022/03/05 00:18:21;;;;;;;7.72;3.70;;;;;;;3.22;72.07;102138.25;4924218;29;20110;-47
2022/03/05 00:20:48;;;;;;;7.25;4.85;;;;;;;3.19;72.41;102136.03;4926182;29;20040;-47
2022/03/05 00:28:04;;;;;;;8.55;3.40;;;;;;;3.11;72.29;102139.25;4923199;29;20036;-52
2022/03/05 00:30:54;;;;;;;6.95;3.70;;;;;;;3.04;72.53;102134.81;4924508;29;20047;-48
2022/03/05 00:33:21;;;;;;;7.40;3.35;;;;;;;3.02;72.68;102134.25;4923447;29;20051;-48
2022/03/05 00:35:48;;;;;;;7.13;3.88;;;;;;;3.01;72.49;102140.84;4924205;29;20040;-48
2022/03/05 00:38:15;;;;;;;7.38;3.72;;;;;;;3.01;72.62;102142.75;4923945;29;20039;-47
2022/03/05 00:40:42;;;;;;;8.73;5.00;;;;;;;2.98;72.83;102144.09;4921581;29;20044;-47
2022/03/05 00:43:09;;;;;;;5.43;2.95;;;;;;;2.98;72.91;102144.09;4923735;29;20449;-48
2022/03/05 00:45:37;;;;;;;7.45;3.13;;;;;;;2.95;72.76;102144.59;4924519;29;20060;-51
2022/03/05 00:48:05;;;;;;;7.28;3.00;;;;;;;2.92;72.82;102145.13;4923467;29;20497;-49
2022/03/05 00:50:32;;;;;;;6.50;2.67;;;;;;;2.92;73.20;102149.75;4924065;29;20071;-49
2022/03/05 00:52:59;;;;;;;13.57;3.92;;;;;;;2.88;72.84;102154.94;4923526;29;20129;-52
2022/03/05 00:55:26;;;;;;;6.07;3.55;;;;;;;2.87;72.93;102152.44;4921175;29;20055;-51
2022/03/05 00:57:53;;;;;;;4.72;2.78;;;;;;;2.86;73.12;102157.09;4921591;29;20094;-47
2022/03/05 01:00:20;;;;;;;7.13;3.38;;;;;;;2.84;73.10;102153.78;4921084;29;20044;-47
2022/03/05 01:02:47;;;;;;;7.45;2.72;;;;;;;2.81;73.04;102151.56;4922486;29;20031;-49
2022/03/05 01:05:15;;;;;;;9.15;2.70;;;;;;;2.79;73.42;102161.97;4923777;29;20036;-48
2022/03/05 01:07:42;;;;;;;4.57;2.42;;;;;;;2.79;73.44;102161.13;4920832;29;20140;-48
2022/03/05 01:14:37;;;;;;;8.80;2.55;;;;;;;2.71;73.80;102143.28;4924494;29;20072;-49
2022/03/05 01:17:05;;;;;;;3.92;2.17;;;;;;;2.68;73.48;102149.25;4905337;29;20072;-48
2022/03/05 01:19:32;;;;;;;5.88;2.92;;;;;;;2.67;73.26;102153.09;4899674;29;20437;-49
2022/03/05 01:21:59;;;;;;;8.77;3.10;;;;;;;2.66;73.60;102156.06;4922770;29;20079;-51
2022/03/05 01:24:26;;;;;;;8.77;2.63;;;;;;;2.65;73.53;102155.25;4923699;29;20474;-47
2022/03/05 01:26:54;;;;;;;5.70;3.13;;;;;;;2.64;73.97;102153.63;4922346;29;20050;-48
2022/03/05 01:34:00;;;;;;;5.80;2.10;;;;;;;2.60;73.44;102157.09;4920459;29;20074;-48
2022/03/05 01:36:27;;;;;;;7.07;2.80;;;;;;;2.58;73.86;102156.53;4923780;29;20391;-48
2022/03/05 01:38:54;;;;;;;5.90;2.42;;;;;;;2.56;74.03;102155.97;4921232;29;20524;-48
2022/03/05 01:45:15;;;;;;;5.88;2.03;;;;;;;2.53;74.10;102153.75;4923318;29;20124;-53
2022/03/05 01:47:42;;;;;;;4.07;2.40;;;;;;;2.52;73.79;102158.38;4923851;29;20469;-50
2022/03/05 01:50:10;;;;;;;6.30;2.65;;;;;;;2.51;74.24;102154.03;4923830;29;20044;-51
2022/03/05 01:52:37;;;;;;;5.30;1.83;;;;;;;2.47;74.26;102152.88;4923319;29;20402;-47
2022/03/05 01:55:04;;;;;;;2.17;1.80;;;;;;;2.53;74.42;102153.75;4922351;29;20095;-47
2022/03/05 01:57:31;;;;;;;5.85;1.80;;;;;;;2.53;74.04;102153.75;4923073;29;20130;-51
2022/03/05 01:59:59;;;;;;;6.07;2.50;;;;;;;2.52;74.20;102161.13;4910511;29;20039;-49
2022/03/05 02:02:26;;;;;;;3.05;1.73;;;;;;;2.52;74.43;102161.13;4922926;29;20080;-49
2022/03/05 02:04:53;;;;;;;4.47;1.92;;;;;;;2.51;74.42;102177.78;4921523;29;20099;-51
2022/03/05 02:11:28;;;;;;;5.03;1.95;;;;;;;2.49;74.32;102175.28;4925605;29;20024;-48
2022/03/05 02:18:01;;;;;;;5.50;1.98;;;;;;;2.44;74.29;102175.25;4928287;29;20040;-49
2022/03/05 02:24:04;;;;;;;3.25;2.63;;;;;;;2.43;74.21;102173.63;4926524;29;20058;-51
2022/03/05 02:26:31;;;;;;;5.95;3.72;;;;;;;2.40;74.24;102171.38;4914285;29;20048;-48
2022/03/05 02:28:58;;;;;;;7.13;2.50;;;;;;;2.40;74.41;102168.66;4909943;29;20453;-49
2022/03/05 02:31:25;;;;;;;5.88;2.67;;;;;;;2.39;74.44;102162.34;4924278;29;20036;-48
2022/03/05 02:33:52;;;;;;;7.13;2.78;;;;;;;2.39;74.30;102173.28;4925278;29;20048;-53
2022/03/05 02:36:21;;;;;;;6.65;2.60;;;;;;;2.35;74.38;102174.91;4926636;29;20055;-47
2022/03/05 02:39:30;;;;;;;4.25;2.22;;;;;;;2.33;74.67;102168.84;4908798;29;20050;-53
2022/03/05 02:41:57;;;;;;;8.52;3.78;;;;;;;2.30;74.69;102174.81;4926033;29;20050;-51
2022/03/05 02:55:15;;;;;;;5.57;2.53;;;;;;;2.12;74.79;102183.34;4925434;29;20054;-48
2022/03/05 02:58:03;;;;;;;9.57;2.50;;;;;;;2.10;74.63;102195.59;4924863;29;20044;-48
2022/03/05 03:07:33;;;;;;;7.65;2.53;;;;;;;1.99;75.04;102204.72;4887190;26;20055;-48
2022/03/05 03:10:12;;;;;;;8.55;2.17;;;;;;;1.99;75.33;102200.09;4941512;28;20416;-48
2022/03/05 03:13:05;;;;;;;4.00;2.30;;;;;;;1.98;75.41;102208.56;4940134;28;20043;-53
2022/03/05 03:15:32;;;;;;;9.13;3.00;;;;;;;1.98;75.00;102206.66;4942960;28;20047;-50
2022/03/05 03:23:44;;;;;;;9.23;2.63;;;;;;;1.95;75.43;102203.59;4941336;28;20039;-49
2022/03/05 03:26:11;;;;;;;3.90;2.47;;;;;;;1.94;75.12;102205.50;4943425;28;20433;-49
2022/03/05 03:33:05;;;;;;;5.00;2.50;;;;;;;1.94;74.94;102212.84;4944614;28;20039;-49
2022/03/05 03:35:32;;;;;;;11.82;2.65;;;;;;;1.92;75.35;102215.03;4943036;28;20079;-48
2022/03/05 03:37:59;;;;;;;4.60;2.40;;;;;;;1.91;75.33;102213.38;4943170;28;20059;-48
2022/03/05 03:45:13;;;;;;;5.75;2.17;;;;;;;1.83;75.34;102212.72;4941187;28;20094;-50
2022/03/05 03:47:42;;;;;;;6.63;1.95;;;;;;;1.80;75.34;102213.22;4946086;29;20453;-48
2022/03/05 03:50:11;;;;;;;8.48;2.83;;;;;;;1.76;75.73;102203.91;4941878;28;20309;-48
2022/03/05 03:52:39;;;;;;;3.30;1.92;;;;;;;1.78;75.71;102214.53;4940651;28;20039;-50
2022/03/05 03:55:09;;;;;;;5.15;2.10;;;;;;;1.75;75.70;102213.16;4943928;28;20480;-48
2022/03/05 04:02:22;;;;;;;6.50;2.55;;;;;;;1.73;75.63;102223.50;4943939;28;20485;-51
2022/03/05 04:04:50;;;;;;;11.65;2.35;;;;;;;1.70;75.63;102221.25;4941805;28;20071;-49
2022/03/05 04:10:04;;;;;;;7.40;2.50;;;;;;;1.68;75.91;102226.16;4941199;28;20039;-51
2022/03/05 04:12:31;;;;;;;8.02;2.47;;;;;;;1.69;75.79;102225.09;4942181;28;20043;-52
2022/03/05 04:14:58;;;;;;;6.00;2.20;;;;;;;1.66;76.08;102220.13;4943681;28;20055;-49
2022/03/05 04:21:41;;;;;;;7.65;1.70;;;;;;;1.59;76.15;102229.56;4942419;28;20051;-48
2022/03/05 04:33:03;;;;;;;7.63;1.63;;;;;;;1.67;76.45;102231.84;4938792;28;20054;-49
2022/03/05 04:40:10;;;;;;;3.85;1.23;;;;;;;1.70;76.46;102240.38;4933371;28;20051;-48
2022/03/05 04:42:37;;;;;;;10.27;2.03;;;;;;;1.74;76.21;102244.28;4938571;28;20051;-47
2022/03/05 04:45:08;;;;;;;4.35;1.10;;;;;;;1.74;76.17;102246.19;4921132;28;20032;-48
2022/03/05 04:47:36;;;;;;;2.47;1.50;;;;;;;1.75;76.43;102247.81;4943138;28;20035;-47
2022/03/05 04:50:36;;;;;;;6.38;1.63;;;;;;;1.74;76.80;102246.19;4941768;28;20145;-50
2022/03/05 04:53:03;;;;;;;10.00;2.38;;;;;;;1.78;76.81;102253.59;4941179;28;20114;-48
2022/03/05 04:55:30;;;;;;;6.10;1.60;;;;;;;1.82;77.15;102256.66;4942384;28;20106;-50
2022/03/05 04:57:57;;;;;;;7.15;1.40;;;;;;;1.85;76.77;102258.91;4924214;29;20043;-50
2022/03/05 05:00:24;;;;;;;15.35;2.65;;;;;;;1.87;76.97;102264.09;4940493;28;20035;-48
2022/03/05 05:02:52;;;;;;;8.90;1.65;;;;;;;1.89;77.33;102262.78;4939376;28;20057;-48
2022/03/05 05:05:19;;;;;;;6.38;1.60;;;;;;;1.91;77.06;102259.81;4938833;28;20492;-51
2022/03/05 05:07:46;;;;;;;1.77;0.90;;;;;;;1.92;77.34;102275.94;4941814;28;20087;-52
2022/03/05 05:15:02;;;;;;;10.23;1.63;;;;;;;1.91;76.99;102290.66;4941906;28;20039;-50
2022/03/05 05:17:37;;;;;;;4.90;1.27;;;;;;;1.92;76.95;102288.75;4941574;29;20433;-48
2022/03/05 05:20:06;;;;;;;7.22;1.73;;;;;;;1.91;77.02;102287.13;4939964;28;20504;-49
2022/03/05 05:22:32;;;;;;;7.97;1.48;;;;;;;1.90;77.00;102294.47;4939205;28;20048;-52
2022/03/05 05:31:14;;;;;;;6.38;1.50;;;;;;;1.88;77.42;102304.00;4937938;28;20058;-48
2022/03/05 05:34:02;;;;;;;4.63;0.90;;;;;;;1.89;77.01;102311.09;4939088;28;20047;-52
2022/03/05 05:36:29;;;;;;;3.45;1.30;;;;;;;1.88;77.02;102307.53;4940986;28;20129;-50
2022/03/05 05:39:38;;;;;;;3.63;1.05;;;;;;;1.87;77.06;102316.00;4939142;29;20397;-47
2022/03/05 05:51:15;;;;;;;3.33;1.48;;;;;;;1.71;76.61;102328.56;4944869;28;20129;-47
2022/03/05 05:54:53;;;;;;;4.35;1.52;;;;;;;1.69;76.69;102333.47;4933594;29;20611;-52
2022/03/05 05:57:20;;;;;;;11.32;4.88;;;;;;;1.61;76.59;102340.16;4939196;28;20039;-47
2022/03/05 05:59:47;;;;;;;9.75;4.97;;;;;;;1.53;77.03;102337.84;4943917;28;20047;-49
2022/03/05 06:02:14;;;;;;;8.15;4.65;;;;;;;1.48;77.01;102343.19;4926795;28;20126;-47
2022/03/05 06:08:18;;;;;;;8.57;2.72;;;;;;;1.39;77.09;102350.13;4930812;29;20048;-48
2022/03/05 06:10:46;;;;;;;11.70;2.60;;;;;;;1.36;76.98;102347.88;4930129;29;20134;-47
2022/03/05 06:13:13;;;;;;;7.15;2.90;;;;;;;1.28;77.34;102344.72;4930841;29;20059;-49
2022/03/05 06:15:41;;;;;;;7.85;3.40;;;;;;;1.21;77.51;102355.78;4929003;29;20094;-49
2022/03/05 06:18:08;;;;;;;5.78;2.38;;;;;;;1.18;77.53;102367.19;4930095;29;20099;-47
2022/03/05 06:25:46;;;;;;;5.95;1.95;;;;;;;1.10;77.45;102360.22;4931156;29;20056;-48
2022/03/05 06:29:14;;;;;;;6.95;1.85;;;;;;;1.07;77.83;102366.16;4931603;29;20052;-48
2022/03/05 06:31:41;;;;;;;4.07;1.77;;;;;;;1.09;77.83;102365.91;4913773;29;20071;-49
2022/03/05 06:34:08;;;;;;;9.32;2.42;;;;;;;1.10;77.87;102370.28;4929224;29;20047;-49
2022/03/05 06:37:07;;;;;;;6.88;3.30;;;;;;;1.11;77.98;102366.50;4932363;29;20047;-48
2022/03/05 06:39:34;;;;;;;4.20;1.70;;;;;;;1.15;77.70;102370.38;4930628;29;20047;-47
2022/03/05 06:42:02;;;;;;;9.48;1.90;;;;;;;1.15;77.75;102373.13;4929030;29;20052;-51
2022/03/05 06:48:55;;;;;;;9.25;1.90;;;;;;;1.14;77.70;102385.09;4930862;29;20404;-48
2022/03/05 06:52:15;;;;;;;7.95;1.75;;;;;;;1.10;78.18;102376.59;4917180;29;21483;-49
2022/03/05 06:54:42;;;;;;;7.03;1.52;;;;;;;1.12;77.92;102384.50;4929570;29;20531;-47
2022/03/05 06:57:09;;;;;;;4.53;1.33;;;;;;;1.10;78.02;102384.75;4929613;29;20078;-48
2022/03/05 06:59:36;;;;;;;7.57;2.10;;;;;;;1.09;77.82;102390.44;4930121;29;20173;-48
2022/03/05 07:02:04;;;;;;;3.70;2.03;;;;;;;1.08;78.03;102397.81;4919078;29;20404;-48
2022/03/05 07:04:31;;;;;;;6.88;2.08;;;;;;;1.07;78.18;102395.31;4930941;29;20051;-55
2022/03/05 07:06:58;;;;;;;5.90;1.98;;;;;;;1.07;78.42;102398.88;4936312;29;20068;-51
2022/03/05 07:09:25;;;;;;;10.35;1.63;;;;;;;1.08;78.44;102394.25;4942580;28;20405;-47
2022/03/05 07:11:52;;;;;;;4.90;1.70;;;;;;;1.09;78.39;102398.63;4945274;28;20063;-49
2022/03/05 07:14:19;;;;;;;8.25;2.28;;;;;;;1.12;78.69;102400.88;4941970;28;20489;-49
2022/03/05 07:16:46;;;;;;;4.60;2.30;;;;;;;1.13;78.75;102408.00;4943774;28;20042;-48
2022/03/05 07:24:23;;;;;;;4.90;1.70;;;;;;;1.17;78.58;102415.44;4942291;28;20058;-48
2022/03/05 07:26:59;;;;;;;8.68;1.73;;;;;;;1.18;78.54;102413.56;4940368;28;20043;-47
2022/03/05 07:29:26;;;;;;;4.82;1.40;;;;;;;1.17;78.64;102417.34;4941414;28;20095;-47
2022/03/05 07:31:53;;;;;;;5.88;1.70;;;;;;;1.17;78.96;102420.06;4944980;28;20092;-47
2022/03/05 07:38:44;;;;;;;6.43;1.70;;;;;;;1.21;78.92;102427.53;4944211;28;20050;-48
2022/03/05 07:41:12;;;;;;;5.63;1.70;;;;;;;1.24;79.02;102431.69;4941714;28;20527;-55
2022/03/05 07:47:16;;;;;;;8.07;1.60;;;;;;;1.30;79.18;102449.78;4944410;28;20441;-47
2022/03/05 07:50:15;;;;;;;7.57;1.95;;;;;;;1.33;79.15;102446.59;4945808;29;20332;-49
2022/03/05 07:52:42;;;;;;;3.90;1.90;;;;;;;1.40;78.93;102454.66;4942410;28;20185;-50
2022/03/05 07:55:15;;;;;;;5.28;1.77;;;;;;;1.41;78.92;102459.84;4943351;29;20505;-51
2022/03/05 07:57:42;;;;;;;5.53;1.83;;;;;;;1.47;78.68;102464.34;4939320;29;20040;-48
2022/03/05 08:00:09;;;;;;;5.93;1.58;;;;;;;1.52;79.18;102466.34;4941040;29;20107;-48
2022/03/05 08:02:51;;;;;;;3.97;0.93;;;;;;;1.54;79.17;102469.63;4941860;29;20038;-48
2022/03/05 08:05:19;;;;;;;8.98;1.55;;;;;;;1.59;79.11;102478.75;4941967;29;20385;-48
2022/03/05 08:07:46;;;;;;;6.78;2.13;;;;;;;1.65;78.71;102487.88;4939312;29;20059;-49
2022/03/05 08:10:14;;;;;;;14.35;2.30;;;;;;;1.68;79.03;102480.03;4933525;29;20070;-52
2022/03/05 08:12:41;;;;;;;5.07;1.20;;;;;;;1.74;78.94;102491.91;4941434;29;20070;-49
2022/03/05 08:15:08;;;;;;;4.28;2.20;;;;;;;1.77;79.02;102497.69;4938350;29;20418;-48
2022/03/05 08:17:35;;;;;;;3.08;1.65;;;;;;;1.79;79.00;102503.75;4922697;29;20055;-52
2022/03/05 08:20:03;;;;;;;6.03;1.73;;;;;;;1.81;78.93;102504.31;4928332;29;20048;-51
2022/03/05 08:22:31;;;;;;;4.03;1.75;;;;;;;1.84;78.97;102514.75;4939481;29;20528;-48
2022/03/05 08:24:57;;;;;;;5.25;2.08;;;;;;;1.89;79.13;102515.91;4944195;28;20698;-48
2022/03/05 08:27:24;;;;;;;3.72;1.95;;;;;;;1.92;78.95;102529.09;4941394;28;21187;-49
2022/03/05 08:29:51;;;;;;;4.70;1.98;;;;;;;1.98;79.11;102536.31;4926557;29;20090;-49
2022/03/05 08:32:52;;;;;;;3.22;1.73;;;;;;;2.00;79.34;102543.19;4941927;28;20051;-50
2022/03/05 08:35:55;;;;;;;6.93;2.78;;;;;;;2.03;79.63;102539.13;4940081;29;20150;-49
2022/03/05 08:38:22;;;;;;;6.80;1.58;;;;;;;2.06;79.39;102547.69;4942075;29;20123;-49
2022/03/05 08:40:49;;;;;;;3.38;1.27;;;;;;;2.10;79.30;102545.28;4941715;29;20043;-47
2022/03/05 08:43:18;;;;;;;4.75;1.90;;;;;;;2.14;79.17;102546.44;4922040;29;20046;-48
2022/03/05 08:45:45;;;;;;;6.90;1.85;;;;;;;2.19;79.11;102549.28;4940141;29;20048;-49
2022/03/05 08:48:12;;;;;;;7.15;1.83;;;;;;;2.25;79.06;102548.31;4939509;29;20055;-57
2022/03/05 08:50:40;;;;;;;6.13;1.80;;;;;;;2.29;79.18;102549.44;4940213;29;20485;-49
2022/03/05 08:53:08;;;;;;;3.83;1.33;;;;;;;2.35;79.16;102559.41;4941288;29;20075;-48
2022/03/05 08:55:35;;;;;;;4.97;2.33;;;;;;;2.39;79.04;102566.84;4938230;29;20047;-48
2022/03/05 08:58:01;;;;;;;5.63;1.52;;;;;;;2.44;79.32;102560.66;4938670;29;20047;-49
2022/03/05 09:00:29;;;;;;;3.38;1.50;;;;;;;2.50;79.05;102558.84;4940591;29;20040;-49
2022/03/05 09:02:56;;;;;;;5.65;1.55;;;;;;;2.57;79.44;102554.84;4940685;29;20138;-49
2022/03/05 09:05:23;;;;;;;8.32;2.13;;;;;;;2.60;79.37;102557.09;4940049;29;20039;-48
2022/03/05 09:07:50;;;;;;;5.45;1.63;;;;;;;2.65;79.26;102554.44;4939935;29;20050;-51
2022/03/05 09:10:17;;;;;;;10.57;2.50;;;;;;;2.71;79.06;102567.13;4939622;29;20043;-54
2022/03/05 09:12:44;;;;;;;10.45;1.50;;;;;;;2.75;79.22;102554.63;4941394;29;20051;-50
2022/03/05 09:15:11;;;;;;;8.63;1.58;;;;;;;2.82;79.06;102554.44;4938636;29;20049;-51
2022/03/05 09:17:38;;;;;;;3.75;1.80;;;;;;;2.91;78.97;102552.97;4944747;29;20040;-54
2022/03/05 09:20:06;;;;;;;15.07;3.83;;;;;;;2.96;79.17;102567.56;4938214;29;20035;-49
2022/03/05 09:22:33;;;;;;;7.47;1.75;;;;;;;3.01;78.90;102564.06;4938595;29;20437;-50
2022/03/05 09:25:00;;;;;;;2.45;1.13;;;;;;;3.03;78.84;102562.72;4937725;29;20036;-48
2022/03/05 09:27:28;;;;;;;9.25;1.48;;;;;;;3.10;79.13;102550.78;4938167;29;20047;-49
2022/03/05 09:29:55;;;;;;;3.85;1.38;;;;;;;3.17;78.57;102552.25;4943747;29;20148;-51
2022/03/05 09:32:22;;;;;;;6.45;1.80;;;;;;;3.23;78.73;102566.84;4938756;29;20062;-53
2022/03/05 09:34:50;;;;;;;7.68;1.55;;;;;;;3.30;79.13;102562.00;4939074;29;20130;-50
2022/03/05 09:37:16;;;;;;;5.60;1.75;;;;;;;3.37;78.52;102568.97;4946232;29;20135;-52
2022/03/05 09:39:43;;;;;;;5.90;1.63;;;;;;;3.45;78.88;102570.44;4939996;29;20094;-50
2022/03/05 09:42:11;;;;;;;5.72;1.40;;;;;;;3.52;78.52;102571.09;4938281;29;20039;-49
2022/03/05 09:44:38;;;;;;;3.92;1.88;;;;;;;3.59;78.52;102571.72;4939924;29;20666;-53
2022/03/05 09:47:06;;;;;;;8.40;1.73;;;;;;;3.66;78.90;102577.81;4938699;29;20044;-51
2022/03/05 09:49:38;;;;;;;3.88;1.05;;;;;;;3.74;78.88;102571.91;4938371;29;20043;-49
2022/03/05 09:52:06;;;;;;;9.88;3.15;;;;;;;3.83;78.68;102570.38;4939552;29;20392;-47
2022/03/05 09:54:34;;;;;;;3.85;1.60;;;;;;;3.93;78.14;102569.66;4938902;29;20464;-48
2022/03/05 09:57:01;;;;;;;8.07;1.42;;;;;;;4.00;77.94;102570.28;4937590;29;20039;-53
2022/03/05 09:59:28;;;;;;;5.13;1.25;;;;;;;4.05;77.87;102571.16;4940619;29;20040;-48
2022/03/05 10:01:55;;;;;;;6.88;1.10;;;;;;;4.14;78.22;102575.13;4939513;29;20111;-52
2022/03/05 10:09:20;;;;;;;6.45;1.20;;;;;;;4.28;77.35;102570.06;4938363;29;20047;-57
2022/03/05 10:11:47;;;;;;;3.53;1.27;;;;;;;4.37;77.61;102562.19;4924199;29;20091;-49
2022/03/05 10:14:16;;;;;;;5.85;1.00;;;;;;;4.43;77.72;102561.13;4925512;29;20047;-52
2022/03/05 10:16:44;;;;;;;7.43;1.08;;;;;;;4.50;77.79;102557.09;4925170;29;20136;-52
2022/03/05 10:19:22;;;;;;;4.38;0.90;;;;;;;4.58;77.42;102564.03;4909659;29;20510;-51
2022/03/05 10:21:59;;;;;;;4.93;1.17;;;;;;;4.61;77.09;102563.50;4923791;29;20082;-51
2022/03/05 10:24:38;;;;;;;3.50;1.17;;;;;;;4.66;77.09;102558.09;4924649;29;20044;-51
2022/03/05 10:27:08;;;;;;;7.63;1.10;;;;;;;4.69;77.35;102549.31;4924305;29;20074;-50
2022/03/05 10:29:37;;;;;;;9.20;1.63;;;;;;;4.74;76.96;102552.91;4907643;29;20095;-54
2022/03/05 10:32:11;;;;;;;6.18;1.85;;;;;;;4.80;76.88;102551.88;4927897;29;20046;-56
2022/03/05 10:34:41;;;;;;;5.28;1.10;;;;;;;4.86;76.86;102561.81;4910862;29;20059;-56
2022/03/05 10:40:42;;;;;;;7.07;1.08;;;;;;;5.08;76.55;102566.34;4928432;29;20374;-54
2022/03/05 10:43:18;;;;;;;4.68;1.33;;;;;;;5.18;76.09;102575.50;4926572;29;20571;-55
2022/03/05 10:45:53;;;;;;;10.43;1.10;;;;;;;5.28;75.86;102575.53;4912830;29;20453;-51
2022/03/05 10:48:28;;;;;;;5.63;0.95;;;;;;;5.38;75.91;102575.59;4928337;29;20485;-54
2022/03/05 10:51:02;;;;;;;4.90;2.17;;;;;;;5.45;75.79;102584.41;4920191;29;20422;-53
2022/03/05 10:53:41;;;;;;;10.90;1.77;;;;;;;5.47;75.89;102585.00;4927855;29;20502;-52
2022/03/05 10:56:29;;;;;;;7.65;1.05;;;;;;;5.52;75.81;102581.44;4927352;29;20048;-56
2022/03/05 10:59:11;;;;;;;4.25;1.10;;;;;;;5.58;75.35;102585.88;4925543;29;20051;-54
2022/03/05 11:01:42;;;;;;;;;;;;;;;5.67;74.53;102577.94;4928783;29;20045;-53
2022/03/05 11:04:11;;;;;;;2.05;0.90;;;;;;;5.79;75.19;102576.63;4927669;29;19933;-50
2022/03/05 11:06:44;;;;;;;6.72;1.20;;;;;;;5.88;75.09;102585.19;4928093;29;20048;-54
2022/03/05 11:09:12;;;;;;;3.35;1.08;;;;;;;5.98;74.75;102585.25;4929090;29;20098;-56
2022/03/05 11:11:42;;;;;;;1.38;0.85;;;;;;;6.03;74.17;102577.88;4939994;29;20099;-54
2022/03/05 11:14:13;;;;;;;2.95;0.80;;;;;;;6.09;74.15;102581.44;4943244;29;20343;-53
2022/03/05 11:16:41;;;;;;;10.80;0.90;;;;;;;6.14;74.42;102590.53;4941201;29;20382;-51
2022/03/05 11:19:09;;;;;;;4.35;1.95;;;;;;;6.23;74.32;102577.06;4941898;29;20492;-54
2022/03/05 11:21:36;;;;;;;8.48;1.50;;;;;;;6.35;74.64;102580.41;4920206;29;20111;-52
2022/03/05 11:24:05;;;;;;;3.88;0.88;;;;;;;6.54;74.15;102584.28;4921267;29;20142;-48
2022/03/05 11:26:34;;;;;;;13.57;2.67;;;;;;;6.63;73.21;102590.06;4940139;29;20489;-49
2022/03/05 11:29:26;;;;;;;4.43;0.98;;;;;;;6.77;73.19;102580.19;4941503;29;20031;-50
2022/03/05 11:32:08;;;;;;;6.03;0.85;;;;;;;6.85;72.92;102587.06;4941179;29;20043;-53
2022/03/05 11:34:48;;;;;;;13.27;3.38;;;;;;;6.99;71.68;102588.16;4942974;29;20043;-49
2022/03/05 11:37:30;;;;;;;3.67;1.23;;;;;;;7.05;71.57;102592.53;4942973;29;20043;-49
2022/03/05 11:40:02;;;;;;;2.53;0.98;;;;;;;7.09;72.05;102593.66;4940413;29;20091;-50
2022/03/05 11:42:50;;;;;;;3.08;0.70;;;;;;;7.10;71.92;102585.09;5313598;23;20053;-50
2022/03/05 11:45:28;;;;;;;3.92;0.80;;;;;;;7.08;70.61;102584.56;4959613;28;21050;-52
2022/03/05 11:48:25;;;;;;;3.10;0.80;;;;;;;7.15;69.28;102578.75;4959498;28;20488;-53
2022/03/05 11:50:55;;;;;;;3.88;1.02;;;;;;;7.10;70.22;102587.03;4959197;28;20563;-50
2022/03/05 11:53:43;;;;;;;7.53;1.10;;;;;;;6.97;70.09;102588.41;4959467;28;20453;-50
2022/03/05 11:56:22;;;;;;;6.47;0.90;;;;;;;6.87;69.22;102593.94;4961031;28;20126;-53
2022/03/05 11:58:51;;;;;;;6.30;0.95;;;;;;;6.84;70.27;102586.22;4959164;28;20062;-51
2022/03/05 12:01:36;;;;;;;5.30;0.80;;;;;;;6.89;70.40;102582.63;4959518;28;20476;-49
2022/03/05 12:04:22;;;;;;;9.82;1.10;;;;;;;7.04;69.59;102590.91;4961548;28;20093;-50
2022/03/05 12:07:03;;;;;;;4.03;1.20;;;;;;;7.12;68.99;102590.34;4958517;28;20062;-50
2022/03/05 12:09:35;;;;;;;4.97;0.98;;;;;;;7.14;69.50;102596.41;4964246;28;20043;-51
2022/03/05 12:12:06;;;;;;;3.92;1.48;;;;;;;7.12;69.94;102591.16;4958710;28;20043;-52
2022/03/05 12:14:55;;;;;;;11.88;3.72;;;;;;;7.10;69.11;102592.53;4953613;28;20042;-48
2022/03/05 12:17:23;;;;;;;4.15;1.13;;;;;;;7.09;69.52;102590.91;4937981;28;20059;-50
2022/03/05 12:19:50;;;;;;;10.95;1.70;;;;;;;7.12;70.05;102591.16;4958946;28;20098;-57
2022/03/05 12:22:17;;;;;;;4.90;1.17;;;;;;;7.16;69.76;102603.28;4958477;28;20125;-51
2022/03/05 12:24:45;;;;;;;9.13;1.60;;;;;;;7.15;69.47;102598.03;4958172;28;20420;-50
2022/03/05 12:27:16;;;;;;;10.77;1.33;;;;;;;7.24;69.72;102594.47;4963095;28;20093;-52
2022/03/05 12:29:52;;;;;;;10.80;1.40;;;;;;;7.38;69.66;102589.22;4960883;28;20524;-50
2022/03/05 12:32:20;;;;;;;8.02;1.30;;;;;;;7.50;69.02;102589.72;4940953;28;20543;-48
2022/03/05 12:34:47;;;;;;;3.97;1.13;;;;;;;7.61;69.34;102583.06;4959662;28;21656;-57
2022/03/05 12:37:30;;;;;;;5.40;1.38;;;;;;;7.81;68.95;102595.97;4943089;28;20094;-50
2022/03/05 12:39:58;;;;;;;3.60;1.20;;;;;;;7.87;68.92;102586.56;4957957;28;20046;-52
2022/03/05 12:42:47;;;;;;;3.75;1.13;;;;;;;7.91;66.41;102582.13;4954015;28;20053;-49
2022/03/05 12:45:30;;;;;;;4.68;0.80;;;;;;;7.89;67.79;102596.19;4959522;28;20047;-52
2022/03/05 12:47:59;;;;;;;4.00;1.20;;;;;;;7.93;67.85;102586.25;4957051;28;20496;-51
2022/03/05 12:50:30;;;;;;;5.53;1.95;;;;;;;7.95;67.08;102588.72;4958595;28;20047;-51
2022/03/05 12:53:07;;;;;;;3.60;0.80;;;;;;;7.98;66.01;102583.47;4958237;28;20051;-55
2022/03/05 12:55:58;;;;;;;4.38;1.17;;;;;;;8.02;63.90;102588.44;4948467;28;20078;-55
2022/03/05 12:58:39;;;;;;;5.65;1.33;;;;;;;8.03;65.57;102573.50;4959310;28;20050;-51
2022/03/05 13:01:11;;;;;;;1.73;0.50;;;;;;;8.04;64.64;102587.03;4955633;28;20509;-53
2022/03/05 13:03:59;;;;;;;4.85;1.27;;;;;;;8.07;64.89;102585.66;4960203;28;20188;-54
2022/03/05 13:06:27;;;;;;;5.38;1.38;;;;;;;8.09;65.17;102584.25;4937852;28;20531;-50
2022/03/05 13:08:54;;;;;;;15.63;2.70;;;;;;;8.10;64.43;102574.03;4965214;28;20424;-48
2022/03/05 13:15:08;;;;;;;6.10;1.15;;;;;;;8.32;64.11;102571.72;4959479;28;20062;-48
2022/03/05 13:17:46;;;;;;;3.08;1.17;;;;;;;8.33;63.30;102573.38;4960612;28;20105;-53
2022/03/05 13:20:17;;;;;;;2.58;1.20;;;;;;;8.42;63.73;102566.13;4955200;28;20063;-55
2022/03/05 13:22:48;;;;;;;5.15;1.02;;;;;;;8.46;63.17;102581.03;4962925;28;20039;-50
2022/03/05 13:25:16;;;;;;;1.65;0.43;;;;;;;8.30;63.22;102568.44;4958189;28;20405;-46
2022/03/05 13:27:46;;;;;;;1.55;0.70;;;;;;;8.34;63.58;102575.84;4961702;28;20547;-47
2022/03/05 13:30:18;;;;;;;0.80;0.45;;;;;;;8.50;63.16;102574.63;4959154;28;20089;-50
2022/03/05 13:32:48;;;;;;;3.65;0.60;;;;;;;8.62;63.58;102571.53;4941248;28;20436;-47
2022/03/05 13:35:16;;;;;;;2.67;1.00;;;;;;;8.59;63.48;102577.63;4963504;28;20050;-46
2022/03/05 13:37:47;;;;;;;5.70;1.10;;;;;;;8.71;64.01;102569.78;4956538;28;20047;-48
2022/03/05 13:40:16;;;;;;;3.67;0.82;;;;;;;8.77;63.58;102573.31;4956974;28;20058;-46
2022/03/05 13:42:46;;;;;;;6.95;0.90;;;;;;;8.99;63.60;102566.25;4957564;28;20496;-49
2022/03/05 13:45:15;;;;;;;5.53;0.90;;;;;;;9.08;63.14;102570.00;4958526;28;20101;-49
2022/03/05 13:47:46;;;;;;;8.02;1.08;;;;;;;9.02;63.10;102560.13;4962971;28;20559;-48
2022/03/05 13:50:15;;;;;;;5.63;1.00;;;;;;;9.14;63.19;102552.28;4958559;28;20519;-49
2022/03/05 13:52:59;;;;;;;3.53;1.05;;;;;;;9.31;61.55;102548.22;4957885;28;20047;-48
2022/03/05 13:55:27;;;;;;;12.20;1.42;;;;;;;9.41;63.02;102550.88;4956756;28;20042;-52
2022/03/05 13:57:55;;;;;;;11.35;1.25;;;;;;;9.32;62.56;102560.94;4957453;28;20830;-48
2022/03/05 14:00:26;;;;;;;5.28;1.13;;;;;;;9.03;61.81;102550.72;4957538;28;20094;-50
2022/03/05 14:02:54;;;;;;;8.80;1.38;;;;;;;8.97;61.96;102553.84;4956968;28;20043;-51
2022/03/05 14:05:28;;;;;;;4.57;1.20;;;;;;;9.11;60.32;102550.09;4938719;28;20042;-55
2022/03/05 14:08:00;;;;;;;3.72;0.82;;;;;;;9.15;61.04;102542.88;4960197;28;20043;-47
2022/03/05 14:10:37;;;;;;;4.00;1.30;;;;;;;9.34;61.12;102550.41;4964806;28;20039;-52
2022/03/05 14:13:24;;;;;;;8.07;1.05;;;;;;;9.28;58.51;102551.56;4951018;28;20042;-49
2022/03/05 14:15:51;;;;;;;2.33;0.65;;;;;;;9.24;60.43;102547.78;4965109;28;20519;-53
2022/03/05 14:18:18;;;;;;;10.95;2.17;;;;;;;9.31;60.36;102540.78;4961138;28;20551;-49